createdAt,value
2018-11-23T00:01:56.700Z,85.43
2018-11-23T00:04:26.407Z,80.53
2018-11-23T00:06:55.912Z,75.87
2018-11-23T00:09:25.723Z,85.53
2018-11-23T00:11:55.430Z,80.27
2018-11-23T00:14:25.245Z,77.57
2018-11-23T00:16:54.746Z,88.50
2018-11-23T00:19:24.562Z,75.83
2018-11-23T00:21:54.472Z,83.77
2018-11-23T00:24:24.287Z,81.07
2018-11-23T00:26:54.202Z,86.27
2018-11-23T00:29:23.807Z,78.70
2018-11-23T00:31:53.720Z,79.30
2018-11-23T00:34:23.332Z,77.27
2018-11-23T00:36:54.267Z,78.87
2018-11-23T00:39:23.770Z,79.57
2018-11-23T00:41:53.480Z,73.87
2018-11-23T00:44:23.074Z,77.17
2018-11-23T00:46:52.693Z,74.57
2018-11-23T00:49:21.990Z,71.60
2018-11-23T00:51:51.395Z,77.73
2018-11-23T00:54:21.000Z,72.10
2018-11-23T00:56:50.505Z,77.73
2018-11-23T00:59:20.011Z,78.13
2018-11-23T01:01:53.817Z,76.07
2018-11-23T01:04:23.730Z,74.33
2018-11-23T01:06:53.438Z,80.93
2018-11-23T01:09:23.251Z,78.70
2018-11-23T01:11:53.015Z,67.87
2018-11-23T01:14:22.772Z,72.83
2018-11-23T01:16:52.684Z,72.40
2018-11-23T01:19:22.443Z,70.70
2018-11-23T01:21:51.899Z,72.80
2018-11-23T01:24:21.511Z,72.87
2018-11-23T01:26:51.319Z,79.10
2018-11-23T01:29:21.015Z,76.17
2018-11-23T01:31:50.636Z,80.23
2018-11-23T01:34:20.447Z,78.37
2018-11-23T01:36:50.255Z,73.47
2018-11-23T01:39:20.056Z,68.50
2018-11-23T01:41:49.884Z,78.40
2018-11-23T01:44:19.689Z,73.63
2018-11-23T01:46:49.298Z,81.80
2018-11-23T01:49:19.009Z,80.13
2018-11-23T01:51:48.411Z,83.67
2018-11-23T01:54:17.812Z,78.27
2018-11-23T01:56:47.826Z,76.73
2018-11-23T01:59:17.743Z,73.93
2018-11-23T02:01:47.452Z,72.77
2018-11-23T02:04:17.886Z,78.00
2018-11-23T02:06:48.025Z,76.00
2018-11-23T02:09:17.498Z,78.37
2018-11-23T02:11:47.101Z,83.97
2018-11-23T02:14:17.333Z,85.67
2018-11-23T02:16:47.868Z,81.17
2018-11-23T02:19:17.469Z,76.63
2018-11-23T02:21:47.690Z,79.57
2018-11-23T02:24:17.816Z,84.10
2018-11-23T02:26:48.247Z,90.17
2018-11-23T02:29:18.577Z,84.43
2018-11-23T02:31:48.290Z,94.77
2018-11-23T02:34:18.197Z,86.90
2018-11-23T02:36:48.127Z,85.47
2018-11-23T02:39:18.236Z,98.67
2018-11-23T02:41:48.334Z,92.07
2018-11-23T02:44:18.367Z,96.83
2018-11-23T02:46:48.267Z,92.30
2018-11-23T02:49:18.276Z,96.93
2018-11-23T02:51:48.415Z,90.80
2018-11-23T02:54:18.410Z,96.90
2018-11-23T02:56:48.755Z,89.90
2018-11-23T02:59:22.075Z,99.70
2018-11-23T03:01:48.458Z,98.67
2018-11-23T03:04:18.375Z,103.53
2018-11-23T03:06:48.315Z,97.03
2018-11-23T03:09:18.828Z,101.83
2018-11-23T03:11:49.253Z,101.97
2018-11-23T03:14:19.157Z,94.40
2018-11-23T03:16:49.907Z,99.23
2018-11-23T03:19:19.501Z,105.80
2018-11-23T03:21:49.319Z,97.20
2018-11-23T03:24:19.120Z,111.53
2018-11-23T03:26:48.944Z,100.80
2018-11-23T03:29:18.877Z,111.53
2018-11-23T03:31:48.453Z,109.83
2018-11-23T03:34:18.688Z,108.27
2018-11-23T03:36:48.516Z,108.13
2018-11-23T03:39:18.939Z,100.53
2018-11-23T03:41:48.521Z,105.40
2018-11-23T03:44:18.146Z,104.37
2018-11-23T03:46:47.972Z,105.27
2018-11-23T03:49:18.385Z,102.80
2018-11-23T03:51:48.019Z,99.40
2018-11-23T03:54:18.092Z,99.03
2018-11-23T03:56:47.923Z,109.53
2018-11-23T03:59:17.513Z,105.23
2018-11-23T04:01:48.569Z,104.97
2018-11-23T04:04:18.588Z,105.43
2018-11-23T04:06:48.488Z,100.77
2018-11-23T04:09:18.095Z,115.53
2018-11-23T04:11:47.792Z,114.60
2018-11-23T04:14:18.749Z,105.50
2018-11-23T04:16:48.652Z,96.13
2018-11-23T04:19:18.462Z,104.63
2018-11-23T04:21:48.502Z,105.47
2018-11-23T04:24:18.289Z,95.50
2018-11-23T04:26:48.227Z,100.90
2018-11-23T04:29:18.028Z,105.77
2018-11-23T04:31:48.028Z,106.47
2018-11-23T04:34:18.254Z,103.53
2018-11-23T04:36:48.093Z,108.10
2018-11-23T04:39:17.878Z,118.00
2018-11-23T04:41:47.907Z,105.67
2018-11-23T04:44:17.904Z,94.47
2018-11-23T04:46:47.949Z,103.33
2018-11-23T04:49:18.025Z,114.47
2018-11-23T04:51:48.366Z,110.00
2018-11-23T04:54:19.226Z,107.40
2018-11-23T04:56:49.960Z,113.77
2018-11-23T04:59:21.800Z,105.47
2018-11-23T05:01:52.440Z,97.70
2018-11-23T05:04:22.851Z,103.90
2018-11-23T05:06:52.778Z,108.70
2018-11-23T05:09:22.783Z,110.60
2018-11-23T05:11:52.920Z,111.37
2018-11-23T05:14:22.831Z,107.33
2018-11-23T05:16:52.832Z,108.67
2018-11-23T05:19:23.281Z,110.27
2018-11-23T05:21:53.066Z,103.27
2018-11-23T05:24:23.394Z,108.97
2018-11-23T05:26:53.936Z,101.87
2018-11-23T05:29:23.957Z,108.77
2018-11-23T05:31:53.870Z,111.03
2018-11-23T05:34:23.465Z,110.50
2018-11-23T05:36:53.475Z,112.47
2018-11-23T05:39:23.296Z,123.27
2018-11-23T05:41:53.319Z,120.30
2018-11-23T05:44:23.036Z,125.33
2018-11-23T05:46:54.152Z,116.87
2018-11-23T05:49:24.184Z,111.10
2018-11-23T05:51:54.920Z,119.60
2018-11-23T05:54:25.666Z,117.77
2018-11-23T05:56:55.860Z,114.30
2018-11-23T05:59:25.898Z,112.10
2018-11-23T06:01:55.480Z,107.77
2018-11-23T06:04:25.936Z,131.63
2018-11-23T06:06:55.960Z,120.43
2018-11-23T06:09:25.835Z,116.00
2018-11-23T06:11:55.975Z,129.63
2018-11-23T06:14:25.997Z,121.57
2018-11-23T06:16:56.017Z,120.97
2018-11-23T06:19:26.037Z,119.37
2018-11-23T06:21:56.047Z,120.60
2018-11-23T06:24:31.967Z,116.80
2018-11-23T06:26:56.378Z,121.37
2018-11-23T06:29:26.520Z,117.40
2018-11-23T06:31:57.055Z,122.90
2018-11-23T06:34:26.336Z,123.67
2018-11-23T06:36:56.013Z,117.30
2018-11-23T06:39:25.943Z,112.47
2018-11-23T06:41:55.656Z,124.50
2018-11-23T06:44:29.345Z,118.27
2018-11-23T06:46:59.463Z,123.20
2018-11-23T06:49:29.915Z,124.40
2018-11-23T06:51:59.815Z,118.50
2018-11-23T06:54:29.836Z,118.10
2018-11-23T06:56:59.424Z,131.43
2018-11-23T06:59:29.156Z,113.77
2018-11-23T07:01:59.375Z,125.80
2018-11-23T07:04:29.596Z,141.30
2018-11-23T07:06:59.285Z,125.70
2018-11-23T07:09:29.019Z,119.47
2018-11-23T07:11:58.499Z,127.70
2018-11-23T07:14:28.097Z,128.13
2018-11-23T07:16:58.146Z,130.57
2018-11-23T07:19:28.156Z,136.17
2018-11-23T07:21:57.775Z,124.70
2018-11-23T07:24:27.455Z,145.10
2018-11-23T07:26:57.276Z,137.30
2018-11-23T07:29:26.897Z,132.80
2018-11-23T07:31:56.380Z,133.90
2018-11-23T07:34:26.015Z,135.00
2018-11-23T07:36:55.618Z,129.80
2018-11-23T07:39:29.400Z,137.17
2018-11-23T07:42:03.409Z,127.93
2018-11-23T07:44:33.336Z,136.70
2018-11-23T07:47:03.026Z,131.43
2018-11-23T07:49:33.676Z,132.67
2018-11-23T07:52:03.476Z,127.33
2018-11-23T07:54:33.200Z,129.27
2018-11-23T07:57:03.315Z,138.47
2018-11-23T07:59:33.142Z,135.80
2018-11-23T08:02:02.846Z,150.20
2018-11-23T08:04:32.556Z,143.30
2018-11-23T08:07:02.676Z,144.57
2018-11-23T08:09:32.462Z,147.10
2018-11-23T08:12:02.815Z,142.73
2018-11-23T08:14:32.400Z,131.67
2018-11-23T08:17:02.026Z,133.67
2018-11-23T08:19:31.936Z,140.30
2018-11-23T08:22:01.424Z,140.73
2018-11-23T08:24:31.036Z,135.00
2018-11-23T08:27:01.245Z,134.13
2018-11-23T08:29:31.163Z,131.67
2018-11-23T08:32:00.978Z,143.70
2018-11-23T08:34:30.175Z,136.73
2018-11-23T08:36:59.999Z,133.47
2018-11-23T08:39:29.792Z,137.87
2018-11-23T08:41:59.506Z,131.10
2018-11-23T08:44:29.415Z,141.27
2018-11-23T08:46:58.946Z,124.67
2018-11-23T08:49:28.637Z,133.63
2018-11-23T08:51:58.256Z,127.60
2018-11-23T08:54:27.845Z,138.50
2018-11-23T08:56:57.455Z,124.77
2018-11-23T08:59:27.366Z,126.90
2018-11-23T09:01:56.973Z,127.30
2018-11-23T09:04:26.377Z,127.13
2018-11-23T09:06:56.396Z,125.90
2018-11-23T09:09:27.023Z,133.37
2018-11-23T09:11:58.478Z,136.17
2018-11-23T09:14:27.978Z,127.40
2018-11-23T09:16:57.916Z,134.07
2018-11-23T09:19:27.816Z,131.47
2018-11-23T09:21:57.636Z,132.60
2018-11-23T09:24:27.327Z,132.33
2018-11-23T09:26:57.012Z,130.17
2018-11-23T09:29:26.963Z,131.90
2018-11-23T09:31:56.672Z,133.33
2018-11-23T09:34:26.367Z,146.50
2018-11-23T09:36:56.175Z,137.93
2018-11-23T09:39:26.018Z,138.67
2018-11-23T09:41:55.703Z,141.97
2018-11-23T09:44:25.514Z,132.23
2018-11-23T09:46:55.555Z,137.67
2018-11-23T09:49:25.556Z,148.33
2018-11-23T09:51:55.765Z,137.53
2018-11-23T09:54:25.786Z,154.73
2018-11-23T09:56:56.017Z,143.43
2018-11-23T09:59:26.123Z,139.63
2018-11-23T10:01:56.890Z,138.60
2018-11-23T10:04:26.516Z,140.77
2018-11-23T10:06:56.486Z,133.57
2018-11-23T10:09:25.986Z,134.37
2018-11-23T10:11:55.515Z,133.80
2018-11-23T10:14:25.003Z,147.37
2018-11-23T10:16:54.824Z,137.37
2018-11-23T10:19:29.015Z,138.53
2018-11-23T10:21:59.263Z,130.53
2018-11-23T10:24:29.302Z,135.43
2018-11-23T10:26:59.402Z,131.67
2018-11-23T10:29:29.216Z,129.90
2018-11-23T10:31:59.016Z,139.93
2018-11-23T10:34:28.916Z,139.67
2018-11-23T10:36:58.956Z,146.40
2018-11-23T10:39:28.656Z,129.50
2018-11-23T10:41:58.375Z,144.13
2018-11-23T10:44:28.265Z,129.23
2018-11-23T10:46:58.084Z,132.27
2018-11-23T10:49:27.897Z,133.73
2018-11-23T10:51:57.917Z,131.03
2018-11-23T10:54:27.716Z,131.50
2018-11-23T10:56:57.836Z,136.17
2018-11-23T10:59:27.874Z,132.53
2018-11-23T11:02:01.600Z,143.97
2018-11-23T11:04:35.378Z,140.07
2018-11-23T11:07:09.365Z,141.93
2018-11-23T11:09:39.914Z,138.17
2018-11-23T11:12:09.835Z,130.83
2018-11-23T11:14:39.955Z,141.50
2018-11-23T11:17:09.857Z,144.23
2018-11-23T11:19:39.776Z,147.80
2018-11-23T11:22:09.475Z,132.17
2018-11-23T11:24:39.376Z,142.47
2018-11-23T11:27:09.708Z,133.73
2018-11-23T11:29:39.614Z,136.53
2018-11-23T11:32:09.536Z,172.07
2018-11-23T11:34:40.037Z,152.67
2018-11-23T11:37:09.977Z,157.87
2018-11-23T11:39:40.015Z,151.63
2018-11-23T11:42:10.326Z,156.17
2018-11-23T11:44:40.756Z,143.17
2018-11-23T11:47:10.879Z,139.13
2018-11-23T11:49:40.598Z,143.27
2018-11-23T11:52:10.486Z,139.30
2018-11-23T11:54:41.035Z,140.13
2018-11-23T11:57:10.837Z,136.40
2018-11-23T11:59:40.666Z,139.50
2018-11-23T12:02:10.351Z,129.73
2018-11-23T12:04:39.976Z,139.33
2018-11-23T12:07:09.775Z,130.17
2018-11-23T12:09:40.074Z,166.43
2018-11-23T12:12:09.796Z,182.70
2018-11-23T12:14:40.036Z,155.93
2018-11-23T12:17:10.017Z,146.97
2018-11-23T12:19:40.257Z,136.70
2018-11-23T12:22:10.041Z,122.37
2018-11-23T12:24:40.419Z,134.87
2018-11-23T12:27:10.326Z,124.70
2018-11-23T12:29:40.319Z,128.40
2018-11-23T12:32:10.236Z,122.57
2018-11-23T12:34:40.355Z,131.40
2018-11-23T12:37:11.712Z,132.33
2018-11-23T12:39:41.935Z,115.10
2018-11-23T12:42:11.746Z,121.17
2018-11-23T12:44:42.042Z,124.33
2018-11-23T12:47:11.596Z,122.93
2018-11-23T12:49:41.476Z,121.03
2018-11-23T12:52:11.812Z,126.80
2018-11-23T12:54:41.936Z,122.43
2018-11-23T12:57:13.275Z,129.20
2018-11-23T12:59:42.255Z,131.73
2018-11-23T13:02:12.197Z,121.23
2018-11-23T13:04:42.915Z,125.20
2018-11-23T13:07:12.714Z,124.20
2018-11-23T13:09:42.339Z,132.87
2018-11-23T13:12:12.747Z,121.97
2018-11-23T13:14:42.146Z,128.13
2018-11-23T13:17:12.176Z,131.13
2018-11-23T13:19:41.994Z,135.53
2018-11-23T13:22:14.462Z,132.90
2018-11-23T13:24:44.171Z,127.10
2018-11-23T13:27:17.973Z,120.40
2018-11-23T13:29:53.953Z,135.67
2018-11-23T13:32:51.490Z,127.17
2018-11-23T13:35:32.570Z,125.57
2018-11-23T13:38:12.741Z,146.97
2018-11-23T13:40:57.390Z,130.20
2018-11-23T13:43:29.141Z,133.93
2018-11-23T13:46:10.039Z,135.47
2018-11-23T13:48:42.687Z,130.40
2018-11-23T13:51:16.731Z,141.77
2018-11-23T13:53:47.343Z,130.40
2018-11-23T13:56:18.880Z,134.03
2018-11-23T13:58:48.995Z,126.30
2018-11-23T14:01:18.921Z,145.03
2018-11-23T14:03:48.831Z,136.50
2018-11-23T14:06:21.222Z,147.47
2018-11-23T14:08:53.058Z,163.80
2018-11-23T14:11:25.187Z,152.60
2018-11-23T14:13:57.274Z,155.00
2018-11-23T14:16:30.120Z,134.67
2018-11-23T14:19:01.978Z,141.93
2018-11-23T14:21:32.880Z,128.93
2018-11-23T14:24:03.411Z,138.37
2018-11-23T14:26:33.214Z,132.87
2018-11-23T14:29:03.039Z,128.87
2018-11-23T14:31:32.524Z,134.47
2018-11-23T14:34:02.461Z,130.07
2018-11-23T14:36:32.490Z,138.03
2018-11-23T14:39:02.382Z,127.33
2018-11-23T14:41:32.901Z,123.63
2018-11-23T14:44:06.984Z,135.30
2018-11-23T14:46:32.829Z,139.50
2018-11-23T14:49:02.851Z,143.63
2018-11-23T14:51:32.761Z,140.83
2018-11-23T14:54:02.672Z,147.43
2018-11-23T14:56:32.492Z,135.37
2018-11-23T14:59:02.821Z,139.37
2018-11-23T15:01:32.422Z,153.23
2018-11-23T15:04:02.342Z,164.37
2018-11-23T15:06:32.552Z,151.70
2018-11-23T15:09:02.802Z,143.20
2018-11-23T15:11:32.992Z,140.70
2018-11-23T15:14:06.622Z,132.10
2018-11-23T15:16:36.928Z,131.73
2018-11-23T15:19:07.362Z,141.20
2018-11-23T15:21:37.580Z,145.60
2018-11-23T15:24:07.503Z,147.13
2018-11-23T15:26:37.822Z,145.63
2018-11-23T15:29:08.042Z,135.87
2018-11-23T15:31:38.364Z,147.00
2018-11-23T15:34:08.472Z,141.93
2018-11-23T15:36:40.275Z,145.83
2018-11-23T15:39:12.022Z,138.27
2018-11-23T15:41:41.792Z,131.07
2018-11-23T15:44:12.042Z,135.17
2018-11-23T15:46:42.041Z,129.33
2018-11-23T15:49:11.841Z,134.97
2018-11-23T15:51:41.981Z,122.17
2018-11-23T15:54:11.678Z,115.03
2018-11-23T15:56:41.581Z,132.43
2018-11-23T15:59:11.511Z,128.60
2018-11-23T16:01:41.621Z,116.57
2018-11-23T16:04:11.846Z,116.90
2018-11-23T16:06:42.043Z,115.50
2018-11-23T16:09:13.942Z,123.90
2018-11-23T16:11:43.961Z,125.93
2018-11-23T16:14:13.860Z,120.93
2018-11-23T16:16:43.980Z,125.10
2018-11-23T16:19:13.802Z,117.23
2018-11-23T16:21:44.221Z,124.80
2018-11-23T16:24:14.443Z,127.67
2018-11-23T16:26:44.162Z,130.27
2018-11-23T16:29:14.182Z,127.43
2018-11-23T16:31:44.182Z,119.60
2018-11-23T16:34:14.622Z,120.63
2018-11-23T16:36:44.942Z,120.60
2018-11-23T16:39:15.041Z,114.27
2018-11-23T16:41:45.382Z,116.00
2018-11-23T16:44:15.601Z,122.07
2018-11-23T16:46:45.421Z,111.73
2018-11-23T16:49:15.840Z,122.67
2018-11-23T16:51:45.962Z,117.77
2018-11-23T16:54:15.752Z,122.50
2018-11-23T16:56:48.961Z,137.73
2018-11-23T16:59:18.880Z,129.33
2018-11-23T17:01:48.665Z,126.30
2018-11-23T17:04:18.593Z,123.43
2018-11-23T17:06:48.612Z,129.13
2018-11-23T17:09:21.429Z,119.47
2018-11-23T17:11:51.392Z,128.37
2018-11-23T17:14:21.432Z,133.90
2018-11-23T17:16:51.837Z,127.33
2018-11-23T17:19:21.853Z,127.50
2018-11-23T17:21:52.029Z,128.63
2018-11-23T17:24:22.613Z,125.50
2018-11-23T17:26:52.516Z,126.53
2018-11-23T17:29:23.210Z,125.70
2018-11-23T17:31:52.672Z,125.47
2018-11-23T17:34:22.793Z,135.70
2018-11-23T17:36:52.480Z,125.00
2018-11-23T17:39:22.213Z,115.90
2018-11-23T17:41:52.022Z,113.30
2018-11-23T17:44:21.935Z,118.63
2018-11-23T17:46:51.953Z,114.17
2018-11-23T17:49:21.963Z,113.13
2018-11-23T17:51:51.866Z,105.00
2018-11-23T17:54:21.592Z,104.67
2018-11-23T17:56:51.487Z,114.53
2018-11-23T17:59:22.422Z,107.83
2018-11-23T18:01:52.452Z,116.27
2018-11-23T18:04:22.273Z,121.20
2018-11-23T18:06:52.592Z,106.00
2018-11-23T18:09:22.512Z,109.43
2018-11-23T18:11:52.832Z,106.73
2018-11-23T18:14:22.521Z,109.43
2018-11-23T18:16:51.929Z,105.07
2018-11-23T18:19:21.752Z,107.37
2018-11-23T18:21:51.564Z,108.87
2018-11-23T18:24:21.574Z,103.03
2018-11-23T18:26:51.477Z,117.40
2018-11-23T18:29:21.413Z,98.53
2018-11-23T18:31:51.311Z,108.83
2018-11-23T18:34:22.772Z,96.13
2018-11-23T18:36:53.037Z,96.37
2018-11-23T18:39:23.213Z,109.03
2018-11-23T18:41:53.026Z,103.10
2018-11-23T18:44:22.924Z,100.23
2018-11-23T18:46:53.673Z,98.73
2018-11-23T18:49:23.893Z,97.90
2018-11-23T18:51:53.903Z,97.60
2018-11-23T18:54:23.834Z,93.67
2018-11-23T18:56:53.633Z,95.70
2018-11-23T18:59:23.328Z,93.13
2018-11-23T19:01:53.564Z,101.37
2018-11-23T19:04:23.592Z,97.97
2018-11-23T19:06:53.583Z,92.70
2018-11-23T19:09:23.613Z,105.13
2018-11-23T19:11:53.412Z,104.27
2018-11-23T19:17:03.784Z,96.10
2018-11-23T19:19:35.969Z,89.00
2018-11-23T19:22:14.366Z,91.93
2018-11-23T19:24:52.898Z,95.90
2018-11-23T19:27:24.353Z,86.63
2018-11-23T19:29:54.761Z,87.57
2018-11-23T19:32:24.893Z,92.60
2018-11-23T19:34:55.917Z,90.73
2018-11-23T19:37:26.244Z,86.40
2018-11-23T19:39:56.366Z,88.77
2018-11-23T19:42:26.891Z,80.10
2018-11-23T19:44:57.832Z,87.57
2018-11-23T19:47:27.946Z,83.30
2018-11-23T19:49:58.800Z,83.80
2018-11-23T19:52:32.288Z,81.53
2018-11-23T19:55:02.808Z,86.13
2018-11-23T19:57:32.829Z,86.50
2018-11-23T20:00:02.968Z,77.43
2018-11-23T20:02:33.709Z,73.63
2018-11-23T20:05:04.313Z,77.57
2018-11-23T20:07:35.556Z,73.20
2018-11-23T20:10:09.464Z,66.30
2018-11-23T20:12:41.635Z,66.23
2018-11-23T20:15:16.871Z,68.17
2018-11-23T20:17:47.399Z,71.33
2018-11-23T20:20:19.975Z,65.17
2018-11-23T20:22:52.552Z,65.97
2018-11-23T20:25:24.320Z,67.83
2018-11-23T20:27:56.479Z,71.00
2018-11-23T20:30:27.517Z,74.47
2018-11-23T20:33:03.894Z,74.17
2018-11-23T20:35:34.828Z,69.47
2018-11-23T20:38:07.202Z,70.97
2018-11-23T20:40:37.816Z,74.23
2018-11-23T20:43:11.045Z,66.43
2018-11-23T20:45:42.971Z,70.27
2018-11-23T20:48:15.469Z,74.27
2018-11-23T20:50:47.527Z,75.80
2018-11-23T20:53:18.859Z,72.97
2018-11-23T20:55:48.769Z,65.73
2018-11-23T20:58:20.728Z,72.87
2018-11-23T21:00:54.233Z,69.70
2018-11-23T21:03:24.765Z,75.13
2018-11-23T21:05:55.221Z,66.70
2018-11-23T21:08:26.224Z,69.07
2018-11-23T21:10:56.962Z,61.10
2018-11-23T21:13:27.385Z,64.60
2018-11-23T21:15:58.427Z,60.93
2018-11-23T21:18:29.049Z,64.53
2018-11-23T21:21:02.766Z,63.73
2018-11-23T21:23:33.798Z,67.93
2018-11-23T21:26:04.946Z,66.90
2018-11-23T21:28:35.167Z,62.13
2018-11-23T21:31:05.078Z,74.33
2018-11-23T21:33:34.999Z,61.90
2018-11-23T21:36:05.049Z,72.23
2018-11-23T21:38:34.716Z,59.97
2018-11-23T21:41:04.937Z,63.53
2018-11-23T21:43:34.852Z,61.63
2018-11-23T21:46:05.691Z,62.30
2018-11-23T21:48:36.014Z,57.30
2018-11-23T21:51:05.822Z,57.27
2018-11-23T21:53:36.454Z,57.73
2018-11-23T21:56:09.437Z,56.53
2018-11-23T21:58:38.129Z,62.67
2018-11-23T22:01:08.863Z,64.63
2018-11-23T22:03:38.689Z,59.50
2018-11-23T22:06:08.487Z,59.63
2018-11-23T22:08:38.806Z,55.67
2018-11-23T22:11:08.826Z,59.80
2018-11-23T22:13:38.632Z,54.67
2018-11-23T22:16:08.341Z,52.00
2018-11-23T22:18:38.257Z,53.67
2018-11-23T22:21:09.199Z,49.07
2018-11-23T22:23:39.009Z,47.70
2018-11-23T22:26:08.733Z,49.07
2018-11-23T22:28:38.635Z,47.90
2018-11-23T22:31:09.279Z,52.93
2018-11-23T22:33:39.179Z,47.87
2018-11-23T22:36:09.091Z,50.37
2018-11-23T22:38:39.829Z,44.83
2018-11-23T22:41:10.879Z,52.00
2018-11-23T22:43:40.580Z,38.03
2018-11-23T22:46:10.899Z,42.50
2018-11-23T22:48:40.827Z,44.43
2018-11-23T22:51:11.135Z,37.00
2018-11-23T22:53:41.255Z,36.50
2018-11-23T22:56:11.378Z,38.87
2018-11-23T22:58:41.287Z,34.00
2018-11-23T23:01:11.317Z,36.00
2018-11-23T23:03:41.116Z,39.40
2018-11-23T23:06:10.835Z,39.97
2018-11-23T23:08:41.355Z,39.83
2018-11-23T23:11:11.479Z,47.50
2018-11-23T23:13:41.799Z,47.10
2018-11-23T23:16:12.270Z,38.73
2018-11-23T23:18:42.247Z,34.43
2018-11-23T23:21:12.676Z,35.40
2018-11-23T23:23:42.687Z,35.67
2018-11-23T23:26:12.395Z,32.57
2018-11-23T23:28:42.207Z,36.43
2018-11-23T23:31:12.230Z,34.27
2018-11-23T23:33:41.924Z,33.03
2018-11-23T23:36:11.643Z,37.43
2018-11-23T23:38:41.147Z,31.97
2018-11-23T23:41:10.967Z,33.63
2018-11-23T23:43:40.867Z,32.67
2018-11-23T23:46:10.476Z,31.83
2018-11-23T23:48:40.296Z,35.43
2018-11-23T23:51:10.082Z,30.00
2018-11-23T23:53:40.015Z,31.77
2018-11-23T23:56:09.824Z,32.87
2018-11-23T23:58:39.752Z,33.00
